Time;durP1;ratioP1;P1;durP2;ratioP2;P2;SDS_P1;SDS_P2;PMS_P1;PMS_P2;Temp;Humidity;BMP_temperature;BMP_pressure;BME280_temperature;BME280_humidity;BME280_pressure;Samples;Min_cycle;Max_cycle;Signal;HPM_P1;HPM_P2
2023/05/20 00:07:46;;;;;;;2.25;1.38;;;;;;;18.68;51.95;102313.16;20915225;28;20072;-63
2023/05/20 00:17:48;;;;;;;2.22;1.25;;;;;;;18.67;51.86;102314.13;20912780;28;20132;-63
2023/05/20 00:27:50;;;;;;;1.55;1.00;;;;;;;18.65;51.98;102313.38;20903668;28;20059;-63
2023/05/20 00:37:51;;;;;;;0.85;0.65;;;;;;;18.65;51.92;102323.28;20912553;28;20052;-63
2023/05/20 00:47:56;;;;;;;1.58;0.90;;;;;;;18.64;51.90;102316.16;20911034;28;20140;-63
2023/05/20 00:57:57;;;;;;;0.90;0.80;;;;;;;18.63;51.94;102303.66;20909361;28;20044;-63
2023/05/20 01:07:59;;;;;;;1.67;1.15;;;;;;;18.61;52.12;102290.28;20909321;28;20053;-63
2023/05/20 01:18:04;;;;;;;1.98;0.90;;;;;;;18.61;52.14;102289.41;20908799;28;20057;-63
2023/05/20 01:28:06;;;;;;;1.42;1.08;;;;;;;18.52;52.04;102272.03;20895033;28;20080;-63
2023/05/20 01:38:08;;;;;;;1.98;1.10;;;;;;;18.60;52.26;102291.25;20907002;28;20084;-63
2023/05/20 01:48:11;;;;;;;1.02;0.90;;;;;;;18.59;52.26;102285.97;20905735;28;20049;-63
2023/05/20 01:58:12;;;;;;;1.63;0.77;;;;;;;18.58;52.20;102277.00;20904955;28;20059;-64
2023/05/20 02:08:14;;;;;;;1.02;0.88;;;;;;;18.58;52.16;102270.75;20903932;28;20053;-63
2023/05/20 02:18:17;;;;;;;2.30;1.40;;;;;;;18.56;52.26;102270.88;20903965;28;20056;-63
2023/05/20 02:28:19;;;;;;;1.85;1.02;;;;;;;18.56;52.29;102278.97;20888074;28;20063;-63
2023/05/20 02:38:22;;;;;;;1.98;0.88;;;;;;;18.55;52.15;102274.50;20901592;28;20053;-63
2023/05/20 02:48:23;;;;;;;1.60;0.80;;;;;;;18.53;52.35;102254.88;20901444;28;20076;-63
2023/05/20 02:58:26;;;;;;;1.63;0.90;;;;;;;18.53;52.34;102262.97;20884314;28;20076;-63
2023/05/20 03:08:28;;;;;;;1.50;1.15;;;;;;;18.52;52.40;102258.53;20901144;28;20045;-63
2023/05/20 03:18:31;;;;;;;1.52;1.02;;;;;;;18.51;52.17;102256.81;20899446;28;20045;-63
2023/05/20 03:28:34;;;;;;;1.63;1.02;;;;;;;18.50;52.44;102268.56;20898573;28;20045;-63
2023/05/20 03:38:36;;;;;;;0.80;0.80;;;;;;;18.49;52.33;102274.94;20927055;28;20049;-63
2023/05/20 03:48:38;;;;;;;0.98;0.70;;;;;;;18.47;52.32;102266.09;20926032;28;20375;-63
2023/05/20 03:58:41;;;;;;;1.25;0.70;;;;;;;18.47;52.52;102274.19;20925707;28;20606;-63
2023/05/20 04:08:43;;;;;;;1.33;0.90;;;;;;;18.45;52.49;102276.13;20925308;28;20045;-63
2023/05/20 04:18:47;;;;;;;1.02;0.60;;;;;;;18.44;52.54;102277.97;20902504;28;20084;-63
2023/05/20 04:28:49;;;;;;;1.23;0.90;;;;;;;18.43;52.40;102280.75;20858717;28;20091;-63
2023/05/20 04:38:51;;;;;;;1.02;0.93;;;;;;;18.43;52.56;102278.94;20835879;28;20100;-63
2023/05/20 04:48:52;;;;;;;1.27;0.60;;;;;;;18.43;52.62;102281.63;20828031;28;20474;-63
2023/05/20 04:58:55;;;;;;;1.58;0.70;;;;;;;18.43;52.65;102286.16;20829051;28;20505;-64
2023/05/20 05:08:57;;;;;;;0.93;0.63;;;;;;;18.43;52.48;102286.16;20827777;28;20099;-64
2023/05/20 05:19:00;;;;;;;0.73;0.73;;;;;;;18.43;52.60;102295.13;20835274;28;20050;-63
2023/05/20 05:29:05;;;;;;;0.50;0.50;;;;;;;18.43;52.45;102280.75;20906973;28;20052;-63
2023/05/20 05:39:06;;;;;;;0.70;0.68;;;;;;;18.44;52.33;102282.50;20906841;28;20412;-63
2023/05/20 05:49:09;;;;;;;0.80;0.70;;;;;;;18.45;52.42;102278.81;20906234;28;20492;-63
2023/05/20 05:59:11;;;;;;;0.75;0.65;;;;;;;18.47;52.37;102282.28;20905309;28;20451;-63
2023/05/20 06:09:14;;;;;;;1.48;0.85;;;;;;;18.48;52.30;102284.00;20903802;28;20516;-63
2023/05/20 06:19:16;;;;;;;1.25;0.75;;;;;;;18.48;52.20;102286.69;20891114;28;20080;-63
2023/05/20 06:29:19;;;;;;;1.00;0.70;;;;;;;18.50;52.38;102290.16;20902135;28;20468;-63
2023/05/20 06:39:20;;;;;;;1.13;0.70;;;;;;;18.51;52.10;102289.19;20902705;28;20053;-63
2023/05/20 06:49:23;;;;;;;0.93;0.80;;;;;;;18.55;52.09;102274.50;20901747;28;20098;-63
2023/05/20 06:59:25;;;;;;;0.82;0.73;;;;;;;18.60;52.05;102264.28;20884329;28;20646;-64
2023/05/20 07:09:27;;;;;;;0.52;0.52;;;;;;;18.62;51.87;102259.66;20883229;28;20827;-63
2023/05/20 07:19:29;;;;;;;0.45;0.45;;;;;;;18.65;52.03;102258.53;20882614;28;20049;-63
2023/05/20 07:29:31;;;;;;;0.68;0.68;;;;;;;18.68;51.99;102240.31;20899370;28;20060;-63
2023/05/20 07:39:33;;;;;;;0.77;0.70;;;;;;;18.78;51.68;102235.16;20898485;28;20082;-63
2023/05/20 07:49:35;;;;;;;0.70;0.70;;;;;;;18.83;51.87;102232.97;20898579;28;20049;-64
2023/05/20 07:59:37;;;;;;;0.55;0.55;;;;;;;18.90;51.89;102233.38;20898117;28;20382;-63
2023/05/20 08:09:39;;;;;;;0.55;0.55;;;;;;;18.99;51.81;102224.66;20897504;28;20471;-63
2023/05/20 08:19:41;;;;;;;0.50;0.50;;;;;;;19.08;51.84;102219.56;20897140;28;20049;-64
2023/05/20 08:29:44;;;;;;;1.85;0.98;;;;;;;19.18;51.67;102217.91;20912674;28;20468;-63
2023/05/20 08:39:47;;;;;;;0.75;0.57;;;;;;;19.25;51.52;102208.38;20911419;28;20045;-63
2023/05/20 08:49:49;;;;;;;1.48;0.70;;;;;;;19.34;51.37;102200.56;20910752;28;20501;-63
2023/05/20 08:59:51;;;;;;;0.70;0.70;;;;;;;19.39;51.58;102195.69;20910728;28;20052;-63
2023/05/20 09:09:52;;;;;;;1.27;0.63;;;;;;;19.42;51.37;102192.75;20908633;28;20045;-63
2023/05/20 09:19:54;;;;;;;0.75;0.60;;;;;;;19.46;51.43;102194.28;20894963;28;20048;-63
2023/05/20 09:29:57;;;;;;;0.50;0.50;;;;;;;19.49;51.50;102172.44;20908589;28;20055;-64
2023/05/20 09:40:08;;;;;;;1.08;0.52;;;;;;;19.52;51.51;102150.59;20907954;28;20053;-63
2023/05/20 09:50:11;;;;;;;0.55;0.55;;;;;;;19.52;51.47;102160.53;20905828;28;20055;-63
2023/05/20 10:00:16;;;;;;;1.10;0.57;;;;;;;19.54;51.57;102136.97;20906220;28;20091;-63
2023/05/20 10:10:36;;;;;;;0.73;0.68;;;;;;;19.53;51.67;102128.00;20902913;28;20052;-63
2023/05/20 10:20:50;;;;;;;0.80;0.70;;;;;;;19.53;51.71;102124.44;20878695;28;20060;-63
2023/05/20 10:30:52;;;;;;;1.27;0.63;;;;;;;19.55;51.74;102117.94;20901231;28;20513;-63
2023/05/20 10:40:53;;;;;;;0.40;0.40;;;;;;;19.59;51.62;102096.09;20902383;28;20044;-63
2023/05/20 10:50:58;;;;;;;0.50;0.40;;;;;;;19.61;51.69;102080.63;20902828;28;20052;-63
2023/05/20 11:01:00;;;;;;;;;;;;;;;19.60;51.63;102073.50;20901991;28;20045;-64
2023/05/20 11:11:01;;;;;;;0.75;0.47;;;;;;;19.61;51.70;102077.94;20886842;28;20289;-64
2023/05/20 11:21:03;;;;;;;0.60;0.55;;;;;;;19.64;51.77;102056.09;20899789;28;20049;-64
2023/05/20 11:31:05;;;;;;;1.65;0.43;;;;;;;19.67;51.72;102053.13;20899406;28;20057;-64
2023/05/20 11:41:06;;;;;;;0.35;0.35;;;;;;;19.67;51.90;102042.34;20898846;28;20053;-63
2023/05/20 11:51:08;;;;;;;0.50;0.50;;;;;;;19.65;51.65;102036.19;20908639;28;20072;-64
2023/05/20 12:01:10;;;;;;;0.45;0.45;;;;;;;19.66;51.65;102017.16;20915910;28;20060;-64
2023/05/20 12:11:23;;;;;;;0.57;0.57;;;;;;;19.66;51.82;102016.31;20898745;28;20041;-64
2023/05/20 12:21:25;;;;;;;0.45;0.30;;;;;;;19.67;51.81;102001.81;20913976;28;20131;-64
2023/05/20 12:31:26;;;;;;;0.30;0.30;;;;;;;19.66;51.70;101992.81;20913492;28;20501;-64
2023/05/20 12:41:28;;;;;;;0.50;0.50;;;;;;;19.66;51.87;101984.72;20912897;28;20049;-63
2023/05/20 12:51:30;;;;;;;0.40;0.40;;;;;;;19.65;51.85;101974.91;20911788;28;20055;-64
2023/05/20 13:01:31;;;;;;;0.38;0.38;;;;;;;19.64;51.76;101970.47;20908849;28;20524;-63
2023/05/20 13:11:33;;;;;;;0.40;0.40;;;;;;;19.63;51.98;101965.22;20897227;28;20057;-64
2023/05/20 13:21:35;;;;;;;0.43;0.43;;;;;;;19.62;51.81;101955.41;20909433;28;20049;-64
2023/05/20 13:31:37;;;;;;;0.50;0.40;;;;;;;19.62;51.74;101939.19;20907290;28;20045;-63
2023/05/20 13:41:39;;;;;;;0.43;0.43;;;;;;;19.60;51.80;101927.66;20906337;28;20493;-64
2023/05/20 13:51:40;;;;;;;0.45;0.30;;;;;;;19.60;51.78;101925.78;20906398;28;20110;-64
2023/05/20 14:01:43;;;;;;;0.30;0.30;;;;;;;19.59;51.79;101910.56;20906471;28;20482;-64
2023/05/20 14:11:46;;;;;;;1.15;0.60;;;;;;;19.56;51.86;101906.28;20890710;28;20049;-63
2023/05/20 14:21:47;;;;;;;0.40;0.40;;;;;;;19.56;51.91;101902.72;20904742;28;20040;-64
2023/05/20 14:31:49;;;;;;;0.55;0.55;;;;;;;19.54;51.84;101894.75;20904156;28;20456;-63
2023/05/20 14:41:51;;;;;;;0.50;0.50;;;;;;;19.53;51.81;101881.34;20902933;28;20059;-64
2023/05/20 14:51:52;;;;;;;0.38;0.38;;;;;;;19.51;52.01;101873.38;20902175;28;20041;-64
2023/05/20 15:01:54;;;;;;;0.40;0.40;;;;;;;19.49;51.81;101864.56;20900763;28;20045;-63
2023/05/20 15:11:55;;;;;;;0.40;0.40;;;;;;;19.50;51.91;101865.41;20891130;28;20063;-63
2023/05/20 15:21:57;;;;;;;0.43;0.43;;;;;;;19.49;51.97;101861.84;20899168;28;20041;-63
2023/05/20 15:31:59;;;;;;;0.85;0.50;;;;;;;19.51;51.91;101859.00;20900274;28;20543;-63
2023/05/20 15:42:02;;;;;;;1.17;0.75;;;;;;;19.50;52.13;101854.59;20899810;28;20099;-63
2023/05/20 15:52:04;;;;;;;0.47;0.40;;;;;;;19.48;51.76;101846.63;20899681;28;20087;-63
2023/05/20 16:02:05;;;;;;;1.35;0.50;;;;;;;19.50;52.00;101844.66;20876080;28;20087;-64
2023/05/20 16:12:07;;;;;;;0.40;0.40;;;;;;;19.49;51.98;101837.53;20890406;28;20497;-63
2023/05/20 16:22:08;;;;;;;0.50;0.40;;;;;;;19.49;51.97;101831.28;20897446;28;20060;-63
2023/05/20 16:32:10;;;;;;;0.85;0.40;;;;;;;19.47;51.97;101823.31;20896343;28;20148;-64
2023/05/20 16:42:12;;;;;;;0.30;0.30;;;;;;;19.46;52.19;101807.22;20911352;28;20049;-64
2023/05/20 16:52:13;;;;;;;0.57;0.47;;;;;;;19.45;52.25;101821.69;20912036;28;20055;-63
2023/05/20 17:02:15;;;;;;;0.40;0.40;;;;;;;19.44;52.04;101833.50;20902360;28;20456;-63
2023/05/20 17:12:17;;;;;;;0.60;0.47;;;;;;;19.41;52.04;101839.97;20910411;28;20048;-63
2023/05/20 17:22:18;;;;;;;0.45;0.45;;;;;;;19.39;52.07;101834.72;20909846;28;20047;-63
2023/05/20 17:32:20;;;;;;;0.50;0.45;;;;;;;19.38;52.21;101837.53;20909468;28;20045;-63
2023/05/20 17:42:21;;;;;;;0.85;0.50;;;;;;;19.37;52.35;101841.22;20907945;28;20059;-63
2023/05/20 17:52:23;;;;;;;0.82;0.60;;;;;;;19.26;52.47;101815.09;20907582;28;20083;-63
2023/05/20 18:02:24;;;;;;;0.82;0.57;;;;;;;19.34;52.22;101834.25;20893373;28;20053;-63
2023/05/20 18:12:26;;;;;;;0.50;0.50;;;;;;;19.33;52.52;101837.03;20888073;28;20049;-63
2023/05/20 18:22:28;;;;;;;0.52;0.52;;;;;;;19.30;52.53;101848.97;20904505;28;20049;-63
2023/05/20 18:32:30;;;;;;;1.60;0.60;;;;;;;19.30;52.58;101840.00;20904289;28;20060;-64
2023/05/20 18:42:31;;;;;;;0.70;0.50;;;;;;;19.27;52.56;101839.25;20902856;28;20089;-63
2023/05/20 18:52:33;;;;;;;0.40;0.40;;;;;;;19.27;52.85;101836.56;20902985;28;20045;-63
2023/05/20 19:02:34;;;;;;;0.50;0.50;;;;;;;19.25;52.72;101830.44;20886282;28;20049;-63
2023/05/20 19:12:36;;;;;;;0.70;0.40;;;;;;;19.26;52.81;101844.78;20900897;28;20045;-63
2023/05/20 19:22:38;;;;;;;0.77;0.60;;;;;;;19.25;52.72;101851.19;20901007;28;20532;-63
2023/05/20 19:32:39;;;;;;;0.52;0.52;;;;;;;19.24;52.83;101852.16;20900471;28;20056;-63
2023/05/20 19:42:41;;;;;;;0.50;0.50;;;;;;;19.22;53.18;101846.88;20898297;28;20551;-63
2023/05/20 19:52:43;;;;;;;0.50;0.50;;;;;;;19.22;53.13;101846.88;20899411;28;20497;-64
2023/05/20 20:02:45;;;;;;;0.60;0.60;;;;;;;19.22;53.12;101865.75;20888328;28;20124;-63
2023/05/20 20:12:47;;;;;;;1.35;0.70;;;;;;;19.21;53.10;101855.94;20908462;28;20045;-63
2023/05/20 20:22:49;;;;;;;0.50;0.50;;;;;;;19.21;52.96;101850.56;20914371;28;20113;-63
2023/05/20 20:32:52;;;;;;;0.50;0.50;;;;;;;19.05;53.25;101814.97;20913482;28;20417;-63
2023/05/20 20:42:57;;;;;;;0.55;0.55;;;;;;;19.18;53.35;101842.69;20913359;28;20060;-63
2023/05/20 20:52:58;;;;;;;;;;;;;;;19.19;53.35;101830.03;20912429;28;20053;-63
2023/05/20 21:03:00;;;;;;;0.98;0.60;;;;;;;19.16;53.28;101839.25;20897278;28;19921;-63
2023/05/20 21:13:02;;;;;;;0.82;0.60;;;;;;;19.15;53.36;101834.84;20910583;28;20053;-63
2023/05/20 21:23:03;;;;;;;0.70;0.70;;;;;;;19.15;53.70;101840.25;20909077;28;20123;-63
2023/05/20 21:33:05;;;;;;;0.65;0.65;;;;;;;19.13;53.80;101832.25;20909024;28;20459;-63
2023/05/20 21:43:06;;;;;;;0.93;0.73;;;;;;;19.13;53.82;101828.72;20907826;28;20055;-63
2023/05/20 21:53:08;;;;;;;1.65;0.90;;;;;;;19.12;54.03;101829.69;20907309;28;20067;-63
2023/05/20 22:03:11;;;;;;;0.93;0.60;;;;;;;19.12;54.00;101829.69;20897846;28;20512;-63
2023/05/20 22:13:13;;;;;;;0.60;0.60;;;;;;;19.08;54.15;101828.22;20905707;28;20051;-63
2023/05/20 22:23:15;;;;;;;0.88;0.60;;;;;;;19.10;53.87;101818.16;20905396;28;20483;-63
2023/05/20 22:33:17;;;;;;;0.63;0.63;;;;;;;19.09;54.18;101805.66;20901329;28;20742;-63
2023/05/20 22:43:21;;;;;;;1.10;1.00;;;;;;;19.08;54.27;101796.69;20903470;28;20605;-63
2023/05/20 22:53:23;;;;;;;1.15;0.85;;;;;;;19.06;54.58;101782.44;20894097;28;20049;-63
2023/05/20 23:03:25;;;;;;;0.75;0.60;;;;;;;19.06;54.46;101770.81;20897111;28;20045;-63
2023/05/20 23:13:26;;;;;;;0.65;0.65;;;;;;;19.02;54.60;101756.69;20900291;28;20139;-64
2023/05/20 23:23:28;;;;;;;1.27;0.93;;;;;;;19.04;54.70;101767.38;20901098;28;20448;-63
2023/05/20 23:33:32;;;;;;;0.73;0.73;;;;;;;19.03;54.84;101754.88;20900157;28;20051;-63
2023/05/20 23:43:34;;;;;;;0.68;0.68;;;;;;;19.04;54.92;101756.59;20903028;28;20083;-63
2023/05/20 23:53:36;;;;;;;0.80;0.80;;;;;;;19.02;54.97;101732.41;20901946;28;20080;-63
